Time;durP1;ratioP1;P1;durP2;ratioP2;P2;SDS_P1;SDS_P2;PMS_P1;PMS_P2;Temp;Humidity;BMP_temperature;BMP_pressure;BME280_temperature;BME280_humidity;BME280_pressure;Samples;Min_cycle;Max_cycle;Signal;HPM_P1;HPM_P2
2021/11/18 00:01:01;;;;;;;5.23;3.70;;;7.10;92.60;;;;;;5078968;28;20219;-84
2021/11/18 00:03:28;;;;;;;4.60;4.10;;;7.20;91.50;;;;;;5081496;28;20211;-85
2021/11/18 00:05:54;;;;;;;4.97;4.50;;;7.20;92.10;;;;;;5082588;28;20195;-84
2021/11/18 00:08:20;;;;;;;5.53;4.90;;;7.20;91.80;;;;;;5080525;28;20357;-86
2021/11/18 00:10:58;;;;;;;5.30;4.80;;;7.20;92.10;;;;;;5085555;28;20180;-85
2021/11/18 00:13:28;;;;;;;5.20;4.70;;;7.10;92.40;;;;;;5080784;28;20187;-86
2021/11/18 00:15:55;;;;;;;6.10;5.50;;;7.30;91.70;;;;;;5086948;28;20250;-83
2021/11/18 00:18:24;;;;;;;6.63;5.43;;;7.10;92.40;;;;;;5062809;28;20206;-84
2021/11/18 00:21:02;;;;;;;6.60;5.80;;;7.30;92.20;;;;;;5079891;28;20195;-85
2021/11/18 00:23:32;;;;;;;6.50;5.80;;;7.30;92.30;;;;;;5076061;28;20176;-85
2021/11/18 00:25:58;;;;;;;6.67;5.80;;;7.20;92.90;;;;;;5075458;28;20180;-86
2021/11/18 00:28:24;;;;;;;5.83;5.00;;;7.40;92.00;;;;;;5076472;28;20214;-85
2021/11/18 00:30:50;;;;;;;7.57;5.87;;;7.50;91.60;;;;;;5076265;28;20184;-85
2021/11/18 00:33:22;;;;;;;9.37;6.00;;;7.50;91.70;;;;;;5075030;28;20204;-85
2021/11/18 00:35:48;;;;;;;7.30;6.20;;;7.60;92.00;;;;;;5081857;28;20179;-85
2021/11/18 00:38:14;;;;;;;7.67;6.27;;;7.40;92.80;;;;;;5076735;28;20203;-86
2021/11/18 00:40:46;;;;;;;7.97;6.37;;;7.30;93.30;;;;;;5074908;28;20195;-85
2021/11/18 00:43:13;;;;;;;8.03;6.63;;;7.30;93.80;;;;;;5082485;28;20194;-85
2021/11/18 00:45:40;;;;;;;7.77;6.70;;;7.30;94.00;;;;;;5084997;28;20215;-85
2021/11/18 00:48:07;;;;;;;10.20;7.17;;;7.10;95.10;;;;;;5084691;28;20210;-86
2021/11/18 00:50:40;;;;;;;9.77;6.87;;;7.20;94.40;;;;;;5083762;28;20254;-85
2021/11/18 00:53:07;;;;;;;8.73;6.97;;;7.20;94.60;;;;;;5082154;28;20195;-85
2021/11/18 00:55:33;;;;;;;8.40;7.57;;;7.40;94.80;;;;;;5086517;28;20199;-85
2021/11/18 00:57:59;;;;;;;9.33;7.27;;;7.20;95.50;;;;;;5082743;28;20207;-85
2021/11/18 01:00:31;;;;;;;8.87;7.97;;;7.30;95.10;;;;;;5080319;28;20712;-85
2021/11/18 01:02:59;;;;;;;8.97;7.30;;;7.10;95.90;;;;;;5081983;28;20203;-86
2021/11/18 01:05:28;;;;;;;9.13;7.93;;;7.20;95.80;;;;;;5076751;28;20199;-86
2021/11/18 01:07:56;;;;;;;8.80;7.70;;;7.30;95.40;;;;;;5085672;28;20274;-86
2021/11/18 01:10:25;;;;;;;9.13;7.30;;;7.40;94.70;;;;;;5084292;28;20425;-86
2021/11/18 01:12:51;;;;;;;8.37;7.57;;;7.40;94.60;;;;;;5086172;28;20192;-84
2021/11/18 01:15:21;;;;;;;8.57;7.73;;;7.40;94.80;;;;;;5080765;28;20203;-85
2021/11/18 01:17:47;;;;;;;8.97;7.43;;;7.50;93.80;;;;;;5086052;28;20211;-85
2021/11/18 01:20:15;;;;;;;8.83;7.40;;;7.50;94.10;;;;;;5084483;28;20203;-85
2021/11/18 01:22:43;;;;;;;9.87;8.20;;;7.40;95.60;;;;;;5081771;28;20734;-85
2021/11/18 01:25:12;;;;;;;8.60;7.50;;;7.40;95.40;;;;;;5080976;28;20192;-86
2021/11/18 01:27:37;;;;;;;8.57;7.77;;;7.40;94.90;;;;;;5084266;28;20199;-86
2021/11/18 01:30:07;;;;;;;7.27;6.50;;;7.40;94.90;;;;;;5084454;28;20183;-84
2021/11/18 01:32:33;;;;;;;7.80;6.80;;;7.40;95.10;;;;;;5081485;28;20218;-86
2021/11/18 01:34:59;;;;;;;9.77;7.60;;;7.30;95.40;;;;;;5068231;28;20216;-85
2021/11/18 01:37:25;;;;;;;6.60;5.90;;;7.30;95.40;;;;;;5080705;28;20583;-85
2021/11/18 01:39:51;;;;;;;7.20;6.57;;;7.20;95.40;;;;;;5084785;28;20222;-84
2021/11/18 01:42:17;;;;;;;6.87;6.23;;;7.20;95.50;;;;;;5091445;28;20220;-84
2021/11/18 01:44:48;;;;;;;7.57;6.67;;;7.30;94.90;;;;;;5090712;28;20201;-85
2021/11/18 01:47:14;;;;;;;6.93;6.23;;;7.20;95.30;;;;;;5091558;28;20195;-85
2021/11/18 01:49:44;;;;;;;7.90;6.43;;;7.30;95.60;;;;;;5077642;28;20220;-85
2021/11/18 01:52:14;;;;;;;7.87;6.60;;;7.20;96.00;;;;;;5096696;28;20179;-84
2021/11/18 01:54:42;;;;;;;7.23;6.37;;;7.10;96.10;;;;;;5075207;28;20186;-86
2021/11/18 01:57:11;;;;;;;6.57;5.97;;;7.10;96.60;;;;;;5083973;28;20199;-84
2021/11/18 01:59:44;;;;;;;7.20;6.50;;;7.10;97.20;;;;;;5083642;28;20728;-85
2021/11/18 02:02:11;;;;;;;6.13;5.53;;;7.10;96.80;;;;;;5084364;28;20207;-85
2021/11/18 02:04:52;;;;;;;6.70;6.00;;;7.20;96.30;;;;;;5084210;28;20195;-86
2021/11/18 02:07:18;;;;;;;7.50;6.27;;;7.20;95.60;;;;;;5082046;28;20211;-85
2021/11/18 02:09:47;;;;;;;7.13;6.43;;;7.30;95.80;;;;;;5083199;28;20241;-86
2021/11/18 02:12:17;;;;;;;7.17;6.47;;;7.30;95.50;;;;;;5084475;28;20218;-85
2021/11/18 02:14:43;;;;;;;6.53;5.83;;;7.20;95.60;;;;;;5083714;28;20202;-86
2021/11/18 02:17:11;;;;;;;7.33;6.30;;;7.30;95.70;;;;;;5085997;28;20219;-85
2021/11/18 02:19:49;;;;;;;7.03;6.33;;;7.20;95.20;;;;;;5082574;28;20222;-85
2021/11/18 02:22:17;;;;;;;7.07;6.37;;;7.30;95.70;;;;;;5076657;28;20211;-85
2021/11/18 02:24:49;;;;;;;6.80;6.20;;;7.30;95.20;;;;;;5080025;28;20188;-86
2021/11/18 02:27:20;;;;;;;6.73;6.03;;;7.50;93.80;;;;;;5084523;28;20179;-86
2021/11/18 02:29:48;;;;;;;7.17;6.47;;;7.60;93.40;;;;;;5080897;28;20233;-86
2021/11/18 02:32:18;;;;;;;7.50;6.80;;;7.40;94.10;;;;;;5083530;28;20175;-86
2021/11/18 02:34:51;;;;;;;8.23;6.47;;;7.50;94.00;;;;;;5081567;28;20196;-85
2021/11/18 02:37:23;;;;;;;7.13;6.43;;;7.50;93.40;;;;;;5082782;28;20641;-85
2021/11/18 02:39:49;;;;;;;7.93;6.27;;;7.40;93.70;;;;;;5076479;28;20202;-85
2021/11/18 02:42:17;;;;;;;7.33;6.57;;;7.40;93.90;;;;;;5083476;28;20206;-86
2021/11/18 02:44:43;;;;;;;7.63;6.83;;;7.20;95.50;;;;;;5080013;28;20196;-84
2021/11/18 02:47:13;;;;;;;7.10;6.40;;;7.10;95.30;;;;;;5080722;28;20234;-86
2021/11/18 02:49:42;;;;;;;6.60;5.90;;;7.10;95.30;;;;;;5080308;28;20222;-84
2021/11/18 02:52:10;;;;;;;7.17;6.57;;;7.20;95.60;;;;;;5083663;28;20188;-86
2021/11/18 02:54:36;;;;;;;7.83;7.03;;;7.10;95.90;;;;;;5075448;28;20211;-85
2021/11/18 02:57:02;;;;;;;9.07;6.87;;;7.30;95.20;;;;;;5078505;28;20211;-84
2021/11/18 02:59:28;;;;;;;8.13;7.33;;;7.40;95.10;;;;;;5083646;28;20223;-86
2021/11/18 03:01:54;;;;;;;9.73;7.47;;;7.30;95.80;;;;;;5063391;28;20276;-85
2021/11/18 03:04:20;;;;;;;7.73;6.90;;;7.30;96.10;;;;;;5081399;28;20226;-84
2021/11/18 03:06:46;;;;;;;8.87;7.63;;;7.20;96.70;;;;;;5082029;28;20209;-86
2021/11/18 03:09:12;;;;;;;8.37;7.40;;;7.10;97.80;;;;;;5082081;28;20227;-85
2021/11/18 03:11:38;;;;;;;9.40;7.87;;;7.00;98.00;;;;;;5081105;28;20219;-84
2021/11/18 03:14:05;;;;;;;7.97;7.17;;;7.10;98.10;;;;;;5079289;28;20195;-84
2021/11/18 03:16:31;;;;;;;9.87;7.57;;;7.10;97.70;;;;;;5083225;28;20192;-85
2021/11/18 03:18:57;;;;;;;8.83;7.90;;;7.20;97.30;;;;;;5079841;28;20222;-86
2021/11/18 03:21:26;;;;;;;10.40;8.17;;;7.20;97.50;;;;;;5082729;28;20230;-86
2021/11/18 03:23:53;;;;;;;9.93;8.30;;;7.30;96.40;;;;;;5084563;28;20240;-85
2021/11/18 03:26:23;;;;;;;9.77;8.20;;;7.20;96.90;;;;;;5080001;28;20187;-86
2021/11/18 03:28:49;;;;;;;10.43;9.33;;;7.10;97.50;;;;;;5076128;28;20203;-85
2021/11/18 03:31:16;;;;;;;8.80;7.90;;;7.10;98.00;;;;;;5080791;28;20223;-86
2021/11/18 03:33:49;;;;;;;8.73;7.67;;;7.30;97.40;;;;;;5069403;28;20386;-85
2021/11/18 03:36:16;;;;;;;8.83;8.03;;;7.20;96.80;;;;;;5077283;28;20192;-85
2021/11/18 03:38:50;;;;;;;8.67;7.87;;;7.20;97.10;;;;;;5077908;28;20211;-86
2021/11/18 03:41:16;;;;;;;9.70;8.60;;;7.10;97.60;;;;;;5079950;28;20241;-85
2021/11/18 03:43:48;;;;;;;8.63;7.83;;;7.10;97.70;;;;;;5077163;28;20203;-86
2021/11/18 03:46:15;;;;;;;10.13;9.17;;;7.10;97.70;;;;;;5075180;28;20190;-84
2021/11/18 03:48:42;;;;;;;9.10;8.20;;;7.20;96.90;;;;;;5077483;28;20215;-86
2021/11/18 03:51:10;;;;;;;12.30;9.30;;;7.10;97.70;;;;;;5103462;28;20191;-84
2021/11/18 03:53:37;;;;;;;10.03;9.03;;;7.00;98.00;;;;;;5080183;28;20271;-85
2021/11/18 03:56:25;;;;;;;9.83;8.83;;;7.00;98.70;;;;;;5076516;28;20198;-86
2021/11/18 03:58:51;;;;;;;10.17;9.17;;;7.10;97.90;;;;;;5078841;28;20203;-84
2021/11/18 04:01:17;;;;;;;10.97;9.27;;;7.20;96.60;;;;;;5069451;28;20652;-85
2021/11/18 04:03:45;;;;;;;10.33;9.10;;;7.20;97.20;;;;;;5075575;28;20196;-86
2021/11/18 04:06:11;;;;;;;9.87;8.80;;;7.10;97.50;;;;;;5073859;28;20196;-85
2021/11/18 04:08:39;;;;;;;10.43;9.27;;;7.10;97.90;;;;;;5073069;28;20270;-85
2021/11/18 04:11:05;;;;;;;10.23;9.23;;;7.10;97.30;;;;;;5070171;28;20206;-85
2021/11/18 04:13:31;;;;;;;10.63;9.63;;;7.20;97.00;;;;;;5075941;28;20195;-86
2021/11/18 04:15:57;;;;;;;14.93;9.53;;;7.10;97.10;;;;;;5077500;28;20199;-85
2021/11/18 04:18:24;;;;;;;9.60;8.50;;;7.20;96.90;;;;;;5072195;28;20216;-86
2021/11/18 04:20:52;;;;;;;9.20;8.30;;;7.00;97.60;;;;;;5071524;28;20195;-86
2021/11/18 04:23:20;;;;;;;10.47;8.97;;;7.00;97.30;;;;;;5075081;28;20186;-85
2021/11/18 04:25:47;;;;;;;9.73;8.73;;;7.10;96.50;;;;;;5074308;28;20210;-86
2021/11/18 04:28:13;;;;;;;12.07;9.60;;;7.10;96.80;;;;;;5074268;28;20214;-85
2021/11/18 04:30:56;;;;;;;10.20;9.00;;;7.10;97.10;;;;;;5077222;28;20206;-85
2021/11/18 04:33:24;;;;;;;10.20;8.97;;;7.10;96.80;;;;;;5078843;28;20198;-85
2021/11/18 04:35:51;;;;;;;10.67;8.23;;;7.10;96.70;;;;;;5072977;28;20195;-85
2021/11/18 04:38:21;;;;;;;9.57;8.63;;;7.20;95.70;;;;;;5072248;28;20211;-85
2021/11/18 04:40:47;;;;;;;10.03;9.03;;;7.30;95.50;;;;;;5076283;28;20219;-85
2021/11/18 04:43:14;;;;;;;9.33;8.53;;;7.40;94.60;;;;;;5078175;28;20199;-86
2021/11/18 04:45:40;;;;;;;8.87;8.03;;;7.30;95.20;;;;;;5078100;28;20183;-85
2021/11/18 04:48:07;;;;;;;9.47;8.50;;;7.20;95.90;;;;;;5067576;28;20234;-85
2021/11/18 04:50:33;;;;;;;9.50;8.50;;;7.10;96.00;;;;;;5077609;28;20188;-85
2021/11/18 04:53:00;;;;;;;12.37;8.77;;;7.00;96.70;;;;;;5073102;28;20210;-85
2021/11/18 04:55:27;;;;;;;9.83;7.63;;;7.10;96.80;;;;;;5072497;28;20192;-84
2021/11/18 04:57:53;;;;;;;9.07;8.17;;;7.10;96.20;;;;;;5071845;28;20214;-86
2021/11/18 05:00:30;;;;;;;9.40;8.50;;;7.10;96.30;;;;;;5075763;28;20186;-85
2021/11/18 05:02:56;;;;;;;9.53;8.53;;;7.00;97.10;;;;;;5075886;28;20225;-85
2021/11/18 05:05:24;;;;;;;9.07;8.17;;;7.00;97.60;;;;;;5076009;28;20188;-86
2021/11/18 05:07:49;;;;;;;9.30;8.40;;;7.00;97.70;;;;;;5070105;28;20211;-86
2021/11/18 05:10:16;;;;;;;8.70;7.80;;;7.00;97.30;;;;;;5076593;28;20207;-86
2021/11/18 05:12:43;;;;;;;8.83;7.93;;;7.00;97.10;;;;;;5072998;28;20754;-86
2021/11/18 05:15:14;;;;;;;10.70;7.80;;;7.10;96.80;;;;;;5077213;28;20195;-85
2021/11/18 05:17:41;;;;;;;9.73;7.70;;;7.00;96.90;;;;;;5074771;28;20191;-84
2021/11/18 05:20:08;;;;;;;9.10;8.00;;;7.00;96.40;;;;;;5070955;28;20359;-86
2021/11/18 05:22:34;;;;;;;14.03;7.53;;;7.00;96.90;;;;;;5073753;28;20203;-85
2021/11/18 05:25:00;;;;;;;8.20;7.30;;;7.10;96.10;;;;;;5077403;28;20192;-86
2021/11/18 05:27:26;;;;;;;9.27;7.47;;;7.20;96.10;;;;;;5071334;28;20293;-85
2021/11/18 05:29:52;;;;;;;7.97;7.17;;;7.10;96.60;;;;;;5076858;28;20199;-85
2021/11/18 05:32:19;;;;;;;8.03;7.33;;;7.10;96.60;;;;;;5080674;28;20298;-85
2021/11/18 05:34:45;;;;;;;8.90;7.47;;;7.30;95.70;;;;;;5076333;28;20532;-86
2021/11/18 05:37:11;;;;;;;8.07;7.23;;;7.20;96.00;;;;;;5079356;28;20183;-86
2021/11/18 05:39:37;;;;;;;11.43;7.67;;;7.20;95.80;;;;;;5079473;28;20212;-84
2021/11/18 05:42:04;;;;;;;8.17;7.07;;;7.20;96.10;;;;;;5081826;28;20210;-85
2021/11/18 05:44:30;;;;;;;9.23;7.10;;;7.20;96.40;;;;;;5079641;28;20229;-83
2021/11/18 05:46:56;;;;;;;9.83;6.97;;;7.10;96.30;;;;;;5076238;28;20195;-85
2021/11/18 05:49:22;;;;;;;8.13;7.33;;;7.10;96.50;;;;;;5080394;28;20204;-85
2021/11/18 05:51:48;;;;;;;7.87;7.07;;;7.10;96.40;;;;;;5077025;28;20896;-85
2021/11/18 05:54:15;;;;;;;8.23;7.43;;;7.10;96.10;;;;;;5079747;28;20223;-85
2021/11/18 05:56:43;;;;;;;7.33;6.57;;;7.10;95.70;;;;;;5079087;28;20199;-85
2021/11/18 05:59:10;;;;;;;8.67;7.67;;;7.10;95.70;;;;;;5084886;28;20203;-84
2021/11/18 06:01:39;;;;;;;8.43;7.47;;;7.00;96.00;;;;;;5081541;28;20691;-85
2021/11/18 06:04:05;;;;;;;11.97;7.47;;;7.10;96.10;;;;;;5079831;28;20198;-85
2021/11/18 06:06:32;;;;;;;8.97;6.73;;;7.00;96.00;;;;;;5078790;28;20167;-85
2021/11/18 06:09:02;;;;;;;10.73;7.17;;;7.10;95.70;;;;;;5088840;28;20203;-85
2021/11/18 06:11:33;;;;;;;9.50;6.80;;;7.10;96.00;;;;;;5073541;28;20200;-85
2021/11/18 06:13:59;;;;;;;8.37;7.07;;;7.00;96.00;;;;;;5079867;28;20182;-85
2021/11/18 06:16:26;;;;;;;7.63;6.87;;;6.90;96.40;;;;;;5079510;28;20195;-86
2021/11/18 06:18:54;;;;;;;7.93;7.13;;;6.90;96.10;;;;;;5076848;28;20208;-85
2021/11/18 06:21:21;;;;;;;6.93;6.10;;;6.90;96.30;;;;;;5075027;28;20220;-84
2021/11/18 06:23:47;;;;;;;7.07;6.37;;;6.90;96.20;;;;;;5081895;28;20182;-84
2021/11/18 06:26:14;;;;;;;8.33;6.63;;;7.10;95.70;;;;;;5078139;28;20187;-86
2021/11/18 06:28:41;;;;;;;7.50;6.53;;;7.10;95.40;;;;;;5079204;28;20695;-85
2021/11/18 06:31:10;;;;;;;6.97;6.13;;;7.00;95.40;;;;;;5077757;28;20221;-83
2021/11/18 06:33:37;;;;;;;6.93;6.20;;;7.20;93.80;;;;;;5084741;28;20180;-86
2021/11/18 06:36:03;;;;;;;6.60;6.00;;;7.20;94.00;;;;;;5078342;28;20214;-85
2021/11/18 06:38:29;;;;;;;7.03;6.43;;;7.10;94.90;;;;;;5078374;28;20207;-84
2021/11/18 06:40:56;;;;;;;6.30;5.70;;;7.20;94.30;;;;;;5075239;28;20207;-85
2021/11/18 06:43:23;;;;;;;7.13;5.97;;;7.20;94.50;;;;;;5078243;28;20184;-86
2021/11/18 06:45:49;;;;;;;7.13;6.27;;;7.10;95.40;;;;;;5077092;28;20180;-86
2021/11/18 06:48:19;;;;;;;6.93;6.20;;;7.20;94.80;;;;;;5076428;28;20214;-87
2021/11/18 06:50:45;;;;;;;6.40;5.80;;;7.30;94.20;;;;;;5077758;28;20186;-88
2021/11/18 06:53:12;;;;;;;7.27;6.30;;;7.20;95.10;;;;;;5058598;28;20245;-86
2021/11/18 06:55:38;;;;;;;7.30;6.60;;;7.30;94.40;;;;;;5075934;28;20198;-86
2021/11/18 06:58:04;;;;;;;6.47;5.87;;;7.50;93.40;;;;;;5071133;28;20206;-87
2021/11/18 07:00:31;;;;;;;7.00;6.40;;;7.60;93.00;;;;;;5074973;28;20188;-86
2021/11/18 07:02:56;;;;;;;9.93;7.13;;;7.50;93.60;;;;;;5071799;28;20292;-87
2021/11/18 07:05:23;;;;;;;7.17;6.50;;;7.50;93.30;;;;;;5060340;28;20192;-87
2021/11/18 07:07:50;;;;;;;7.00;6.30;;;7.70;92.50;;;;;;5074240;28;20208;-89
2021/11/18 07:10:16;;;;;;;7.07;6.37;;;7.70;92.60;;;;;;5076891;28;20184;-88
2021/11/18 07:12:43;;;;;;;8.37;5.73;;;7.70;92.60;;;;;;5078401;28;20196;-88
2021/11/18 07:15:11;;;;;;;5.53;5.03;;;7.80;91.80;;;;;;5081411;28;20176;-89
2021/11/18 07:17:37;;;;;;;9.30;5.90;;;7.70;92.00;;;;;;5079413;28;20187;-88
2021/11/18 07:20:06;;;;;;;8.10;5.53;;;7.70;92.80;;;;;;5077959;28;20259;-88
2021/11/18 07:22:32;;;;;;;7.63;6.20;;;7.60;92.70;;;;;;5080886;28;20241;-89
2021/11/18 07:24:59;;;;;;;8.10;6.27;;;7.50;93.60;;;;;;5075849;28;20188;-88
2021/11/18 07:27:25;;;;;;;6.20;5.30;;;7.50;93.40;;;;;;5075139;28;20188;-88
2021/11/18 07:29:51;;;;;;;6.10;5.60;;;7.60;92.90;;;;;;5078524;28;20762;-88
2021/11/18 07:32:17;;;;;;;7.37;5.63;;;7.70;92.20;;;;;;5076267;28;20223;-88
2021/11/18 07:34:44;;;;;;;6.40;5.53;;;7.60;92.70;;;;;;5074177;28;20717;-87
2021/11/18 07:37:09;;;;;;;6.27;5.67;;;7.50;93.90;;;;;;5078018;28;20190;-87
2021/11/18 07:39:35;;;;;;;5.90;5.30;;;7.60;93.20;;;;;;5062945;28;20207;-88
2021/11/18 07:42:01;;;;;;;7.50;5.53;;;7.50;93.90;;;;;;5074061;28;20209;-87
2021/11/18 07:44:27;;;;;;;6.50;5.47;;;7.50;94.30;;;;;;5076969;28;20192;-87
2021/11/18 07:46:53;;;;;;;5.70;5.10;;;7.50;94.40;;;;;;5079875;28;20413;-86
2021/11/18 07:49:19;;;;;;;6.13;5.53;;;7.50;94.70;;;;;;5072910;28;20211;-88
2021/11/18 07:51:45;;;;;;;6.83;5.67;;;7.40;95.10;;;;;;5075574;28;20191;-88
2021/11/18 07:54:15;;;;;;;6.07;5.40;;;7.60;93.80;;;;;;5078802;28;20222;-87
2021/11/18 07:56:41;;;;;;;7.40;5.50;;;7.50;93.80;;;;;;5096248;28;20183;-88
2021/11/18 07:59:08;;;;;;;5.17;4.67;;;7.40;95.00;;;;;;5081100;28;20718;-88
2021/11/18 08:01:34;;;;;;;6.07;5.47;;;7.50;94.50;;;;;;5077533;28;20746;-87
2021/11/18 08:04:00;;;;;;;7.10;6.00;;;7.50;94.90;;;;;;5080128;28;20180;-87
2021/11/18 08:06:28;;;;;;;6.00;5.40;;;7.40;95.10;;;;;;5076780;28;20187;-87
2021/11/18 08:08:56;;;;;;;8.37;6.67;;;7.40;95.30;;;;;;5073172;28;20199;-87
2021/11/18 08:11:28;;;;;;;8.50;6.50;;;7.40;94.80;;;;;;5074732;28;20612;-88
2021/11/18 08:13:54;;;;;;;7.43;5.97;;;7.50;94.90;;;;;;5078025;28;20180;-87
2021/11/18 08:16:21;;;;;;;7.73;6.43;;;7.50;95.00;;;;;;5075310;28;20220;-87
2021/11/18 08:18:47;;;;;;;8.90;6.33;;;7.50;95.10;;;;;;5070892;28;20219;-88
2021/11/18 08:21:16;;;;;;;7.50;6.43;;;7.70;94.10;;;;;;5090047;28;20219;-88
2021/11/18 08:23:43;;;;;;;7.17;6.43;;;7.70;93.20;;;;;;5081450;28;20195;-88
2021/11/18 08:26:11;;;;;;;7.80;6.63;;;7.70;93.80;;;;;;5076965;28;20229;-88
2021/11/18 08:28:38;;;;;;;7.73;6.83;;;7.60;94.60;;;;;;5080491;28;20199;-89
2021/11/18 08:31:04;;;;;;;7.73;6.73;;;7.70;94.20;;;;;;5075086;28;20176;-89
2021/11/18 08:33:30;;;;;;;7.63;6.87;;;7.80;93.40;;;;;;5075124;28;20202;-90
2021/11/18 08:35:57;;;;;;;8.03;6.37;;;7.90;92.90;;;;;;5076411;28;20725;-89
2021/11/18 08:38:23;;;;;;;7.80;7.03;;;7.80;93.80;;;;;;5077997;28;20215;-88
2021/11/18 08:41:10;;;;;;;7.87;7.13;;;7.80;94.20;;;;;;5074990;28;20187;-89
2021/11/18 08:43:39;;;;;;;8.03;7.23;;;7.70;94.20;;;;;;5065440;28;20657;-90
2021/11/18 08:46:07;;;;;;;7.97;7.17;;;7.70;93.90;;;;;;5074677;28;20726;-89
2021/11/18 08:48:33;;;;;;;9.03;7.10;;;7.80;94.50;;;;;;5073336;28;20203;-90
2021/11/18 08:50:59;;;;;;;7.93;7.13;;;7.90;93.90;;;;;;5056800;28;20215;-89
2021/11/18 08:53:30;;;;;;;9.43;7.30;;;8.10;91.80;;;;;;5076257;28;20183;-89
2021/11/18 08:55:57;;;;;;;8.57;7.33;;;8.20;91.80;;;;;;5079435;28;20184;-89
2021/11/18 08:58:27;;;;;;;8.40;7.37;;;8.10;92.80;;;;;;5077708;28;20675;-89
2021/11/18 09:01:03;;;;;;;8.57;7.10;;;8.30;92.90;;;;;;5077919;28;20196;-89
2021/11/18 09:03:33;;;;;;;14.50;7.80;;;8.30;92.70;;;;;;5060657;28;20199;-89
2021/11/18 09:06:00;;;;;;;8.13;7.13;;;8.40;92.40;;;;;;5075429;28;20188;-89
2021/11/18 09:08:26;;;;;;;8.57;7.23;;;8.30;92.00;;;;;;5076785;28;20220;-87
2021/11/18 09:10:52;;;;;;;7.83;7.13;;;8.20;93.00;;;;;;5078659;28;20279;-89
2021/11/18 09:13:22;;;;;;;12.30;8.50;;;8.10;93.60;;;;;;5075843;28;20266;-88
2021/11/18 09:15:48;;;;;;;8.17;7.37;;;8.30;92.70;;;;;;5079263;28;20282;-89
2021/11/18 09:18:15;;;;;;;8.13;7.03;;;8.40;92.50;;;;;;5079259;28;20242;-89
2021/11/18 09:20:42;;;;;;;8.37;7.10;;;8.40;92.40;;;;;;5077353;28;20200;-89
2021/11/18 09:23:11;;;;;;;7.87;6.93;;;8.40;92.00;;;;;;5084566;28;20211;-90
2021/11/18 09:25:41;;;;;;;8.33;7.53;;;8.30;93.90;;;;;;5071505;28;20199;-88
2021/11/18 09:28:09;;;;;;;7.93;7.07;;;8.40;93.50;;;;;;5076831;28;20204;-90
2021/11/18 09:30:40;;;;;;;7.60;6.87;;;8.40;93.20;;;;;;5061498;28;20283;-88
2021/11/18 09:33:07;;;;;;;7.87;7.07;;;8.20;93.90;;;;;;5076145;28;20191;-90
2021/11/18 09:35:40;;;;;;;8.00;7.27;;;8.10;94.70;;;;;;5074741;28;20281;-88
2021/11/18 09:38:07;;;;;;;7.63;6.93;;;8.20;93.70;;;;;;5082784;28;20216;-89
2021/11/18 09:40:40;;;;;;;10.93;7.30;;;8.30;94.60;;;;;;5082525;28;20255;-89
2021/11/18 09:43:27;;;;;;;8.83;7.93;;;8.50;93.70;;;;;;5081764;28;20602;-89
2021/11/18 09:46:28;;;;;;;7.03;6.33;;;8.40;93.30;;;;;;5076789;28;20223;-88
2021/11/18 09:48:54;;;;;;;12.87;9.77;;;8.40;93.70;;;;;;5068794;28;20269;-89
2021/11/18 09:51:36;;;;;;;9.43;7.67;;;8.40;93.40;;;;;;5081449;28;20199;-89
2021/11/18 09:54:40;;;;;;;8.20;7.40;;;8.60;93.50;;;;;;5082686;28;20183;-89
2021/11/18 09:57:24;;;;;;;9.97;7.60;;;8.50;93.20;;;;;;5099816;28;20295;-88
2021/11/18 10:00:14;;;;;;;6.40;5.70;;;8.70;92.80;;;;;;5086411;28;20234;-89
2021/11/18 10:02:45;;;;;;;6.17;5.57;;;8.50;92.10;;;;;;5077768;28;20242;-88
2021/11/18 10:05:15;;;;;;;6.30;5.67;;;8.50;93.10;;;;;;5078924;28;20184;-89
2021/11/18 10:07:54;;;;;;;8.40;5.57;;;8.50;92.50;;;;;;5081004;28;20194;-89
2021/11/18 10:10:58;;;;;;;6.30;5.47;;;8.50;92.70;;;;;;5075343;28;20194;-89
2021/11/18 10:13:51;;;;;;;7.30;6.23;;;8.50;92.50;;;;;;5089603;28;20249;-89
2021/11/18 10:16:24;;;;;;;7.23;5.97;;;8.60;92.60;;;;;;5080333;28;20195;-89
2021/11/18 10:18:58;;;;;;;6.47;5.83;;;8.80;90.70;;;;;;5076063;28;20211;-89
2021/11/18 10:21:36;;;;;;;6.83;6.13;;;8.90;90.40;;;;;;5086930;28;20216;-89
2021/11/18 10:24:13;;;;;;;7.57;6.13;;;8.80;90.90;;;;;;5075104;28;20199;-89
2021/11/18 10:26:51;;;;;;;7.47;6.43;;;8.80;90.40;;;;;;5081052;28;20194;-89
2021/11/18 10:29:23;;;;;;;7.93;6.77;;;8.80;90.20;;;;;;5066672;28;20207;-89
2021/11/18 10:32:04;;;;;;;10.73;6.77;;;8.90;90.40;;;;;;5075804;28;20349;-89
2021/11/18 10:34:57;;;;;;;8.63;6.80;;;9.10;90.00;;;;;;5076115;28;20199;-88
2021/11/18 10:37:30;;;;;;;12.27;7.40;;;9.00;89.20;;;;;;5080832;28;20191;-89
2021/11/18 10:40:11;;;;;;;8.43;7.40;;;8.80;89.20;;;;;;5071085;28;20540;-89
2021/11/18 10:42:39;;;;;;;7.60;6.27;;;9.10;89.30;;;;;;5090640;28;20218;-89
2021/11/18 10:45:11;;;;;;;8.13;7.27;;;9.20;87.60;;;;;;5073515;28;20190;-88
2021/11/18 10:47:55;;;;;;;7.37;6.63;;;9.30;89.00;;;;;;5077545;28;21163;-88
2021/11/18 10:50:31;;;;;;;9.43;7.97;;;9.30;87.80;;;;;;5079200;28;20702;-88
2021/11/18 10:53:07;;;;;;;9.13;6.93;;;9.30;87.80;;;;;;5078575;28;20221;-88
2021/11/18 10:55:39;;;;;;;13.20;11.67;;;9.20;88.10;;;;;;5073698;28;20200;-88
2021/11/18 10:58:31;;;;;;;18.50;15.30;;;9.40;86.80;;;;;;5078273;28;20219;-89
2021/11/18 11:01:01;;;;;;;8.20;7.40;;;9.60;86.30;;;;;;5077340;28;20184;-89
2021/11/18 11:03:33;;;;;;;7.23;6.37;;;9.50;85.90;;;;;;5078231;28;20218;-89
2021/11/18 11:06:32;;;;;;;7.23;5.37;;;9.20;87.80;;;;;;5077517;28;20191;-89
2021/11/18 11:09:12;;;;;;;6.83;6.10;;;8.90;88.70;;;;;;5078980;28;20212;-89
2021/11/18 11:11:44;;;;;;;7.43;6.17;;;8.90;88.40;;;;;;5072303;28;20202;-89
2021/11/18 11:14:47;;;;;;;7.07;6.37;;;9.00;89.30;;;;;;5077470;28;20211;-89
2021/11/18 11:17:35;;;;;;;8.40;7.50;;;9.20;86.60;;;;;;5081499;28;20197;-89
2021/11/18 11:20:11;;;;;;;7.97;7.17;;;9.30;87.70;;;;;;5074821;28;20183;-89
2021/11/18 11:22:45;;;;;;;7.40;6.60;;;9.40;86.40;;;;;;5070810;28;20217;-90
2021/11/18 11:25:39;;;;;;;6.67;5.77;;;9.50;87.20;;;;;;5076588;28;20199;-89
2021/11/18 11:28:27;;;;;;;5.73;5.13;;;9.30;87.50;;;;;;5073588;28;20228;-90
2021/11/18 11:31:14;;;;;;;8.07;5.63;;;9.00;87.90;;;;;;5076832;28;20188;-89
2021/11/18 11:33:58;;;;;;;8.13;5.83;;;9.00;88.00;;;;;;5080193;28;20188;-87
2021/11/18 11:36:32;;;;;;;7.20;6.37;;;9.00;88.20;;;;;;5096424;28;20176;-90
2021/11/18 11:39:29;;;;;;;9.17;6.43;;;8.90;88.60;;;;;;5078533;28;20340;-89
2021/11/18 11:42:09;;;;;;;8.53;7.10;;;8.90;89.10;;;;;;5076326;28;20207;-90
2021/11/18 11:45:03;;;;;;;8.47;7.63;;;9.00;88.60;;;;;;5067840;28;20187;-89
2021/11/18 11:47:47;;;;;;;8.53;7.63;;;9.10;89.00;;;;;;5080436;28;20190;-89
2021/11/18 11:50:23;;;;;;;10.10;7.23;;;9.10;88.80;;;;;;5079711;28;20191;-89
2021/11/18 11:53:29;;;;;;;8.20;7.30;;;9.10;87.40;;;;;;5077248;28;20198;-89
2021/11/18 11:56:07;;;;;;;7.53;6.13;;;9.10;87.20;;;;;;5074337;28;20175;-89
2021/11/18 11:59:05;;;;;;;8.00;7.20;;;9.10;88.40;;;;;;5079800;28;20210;-90
2021/11/18 12:01:40;;;;;;;12.67;8.00;;;9.00;87.30;;;;;;5077033;28;20222;-88
2021/11/18 12:04:22;;;;;;;9.67;8.10;;;9.10;87.20;;;;;;5074398;28;20184;-89
2021/11/18 12:07:06;;;;;;;12.67;8.10;;;9.00;89.60;;;;;;5079757;28;20195;-89
2021/11/18 12:10:04;;;;;;;10.50;8.43;;;8.90;88.20;;;;;;5080496;28;20207;-88
2021/11/18 12:13:01;;;;;;;12.10;7.67;;;8.90;88.70;;;;;;5078007;28;20195;-89
2021/11/18 12:15:27;;;;;;;7.70;7.00;;;9.10;88.10;;;;;;5070685;28;20187;-89
2021/11/18 12:17:57;;;;;;;10.03;8.90;;;9.20;86.90;;;;;;5095814;28;20218;-89
2021/11/18 12:20:43;;;;;;;9.23;7.93;;;9.30;87.20;;;;;;5075508;28;20230;-89
2021/11/18 12:23:12;;;;;;;11.33;8.53;;;9.30;86.50;;;;;;5076590;28;20327;-88
2021/11/18 12:25:48;;;;;;;9.47;8.47;;;9.30;85.80;;;;;;5078894;28;20601;-88
2021/11/18 12:28:19;;;;;;;9.33;8.20;;;9.30;86.00;;;;;;5073935;28;20234;-89
2021/11/18 12:30:53;;;;;;;9.73;8.03;;;9.30;85.50;;;;;;5077800;28;20192;-89
2021/11/18 12:33:19;;;;;;;11.17;8.43;;;9.40;85.00;;;;;;5077505;28;20202;-89
2021/11/18 12:36:17;;;;;;;9.87;8.87;;;9.20;85.90;;;;;;5081355;28;20222;-89
2021/11/18 12:38:54;;;;;;;8.90;8.00;;;9.20;86.10;;;;;;5078214;28;20203;-89
2021/11/18 12:41:43;;;;;;;12.23;9.20;;;9.20;86.80;;;;;;5083602;28;20187;-88
2021/11/18 12:44:41;;;;;;;12.23;7.87;;;9.20;86.40;;;;;;5081746;28;20184;-89
2021/11/18 12:47:30;;;;;;;12.50;9.20;;;9.20;86.10;;;;;;5079820;28;20191;-89
2021/11/18 12:50:08;;;;;;;11.17;9.03;;;9.20;85.60;;;;;;5082209;28;20203;-89
2021/11/18 12:53:21;;;;;;;10.50;8.63;;;9.30;85.60;;;;;;5099638;28;20191;-90
2021/11/18 12:56:08;;;;;;;11.57;8.90;;;9.20;85.40;;;;;;5084164;28;20203;-88
2021/11/18 12:58:48;;;;;;;13.23;9.00;;;9.20;85.70;;;;;;5093615;28;20218;-89
2021/11/18 13:01:23;;;;;;;11.10;9.43;;;9.10;86.30;;;;;;5084372;28;20200;-89
2021/11/18 13:03:49;;;;;;;9.80;8.57;;;9.20;86.50;;;;;;5080136;28;20191;-88
2021/11/18 13:06:37;;;;;;;13.53;9.57;;;9.20;86.20;;;;;;5080100;28;20179;-89
2021/11/18 13:09:07;;;;;;;12.97;9.90;;;9.20;87.40;;;;;;5082912;28;20271;-89
2021/11/18 13:11:34;;;;;;;12.33;9.63;;;9.10;86.80;;;;;;5083678;28;20278;-88
2021/11/18 13:14:09;;;;;;;12.90;10.90;;;9.30;86.50;;;;;;5081514;28;20198;-89
2021/11/18 13:16:51;;;;;;;13.40;8.73;;;9.20;87.30;;;;;;5081036;28;20749;-89